Norfolk, Virginia
Traffic Map
Current Weather Conditions
Norfolk, Virginia
Clear
Clear
13°
Feels Like: 13°
Wind Chill: 13° Ceiling: Unl
Heat Index: 13° Visibility: 10mi
Dew Point: Wind: 5mph
Humidity: 44% Direction: 120° (ESE)
Pressure: 30.02in Gusts: 0mph
Raw Report DataKORF 242351Z AUTO 12004KT 10SM CLR 13/01 A3002 RMK AO2 SLP166 T01330011 10172 20128 53006 TSNO
Traffic Incident Summary
Active as of:
Severity:
Category:
InformationThere was an issue retrieving the traffic information for this location. Please try a different location or try again shortly.
Advertisements
At Last! Intellicast now available for iPhone and Android